Lake Sumner, New Mexico
Current Conditions -  °F | °C
As of 7:56 AM on Sunday 21 Dec 2014 (Local Time) from K4MR Reporting Station
Clear Clear  
Wind Chill: 32°   Ceiling: Unl
Heat Index: 40°   Visibility: 10mi
Dew Point: 22°   Wind: 17mph
Humidity: 49%   Direction: 240°WSW
Pressure: 29.91"   Gusts: 22mph
Location:  34.3001°N, 104.256°W
Report Text: K4MR 211456Z AUTO 24015G19KT 10SM CLR 05/M05 A2991 RMK AO2 SLP125 T00471053 56005
Loading
Personal Weather Stations






























Interactive Weather Map New forecast layout! Learn more

10-Day Weather Forecast

Advertisements
Track Severe Weather on mobile